createdAt,value
2023-05-07T00:00:27.695Z,14.50
2023-05-07T00:03:30.600Z,14.50
2023-05-07T00:06:34.754Z,14.50
2023-05-07T00:09:38.419Z,14.50
2023-05-07T00:12:42.716Z,14.50
2023-05-07T00:15:45.459Z,14.50
2023-05-07T00:18:48.266Z,14.50
2023-05-07T00:21:51.058Z,14.40
2023-05-07T00:24:53.797Z,14.40
2023-05-07T00:27:58.511Z,14.40
2023-05-07T00:31:01.222Z,14.40
2023-05-07T00:34:03.994Z,14.30
2023-05-07T00:37:08.313Z,14.30
2023-05-07T00:40:11.854Z,14.30
2023-05-07T00:43:17.269Z,14.20
2023-05-07T00:46:22.200Z,14.20
2023-05-07T00:49:29.351Z,14.20
2023-05-07T00:52:32.279Z,14.10
2023-05-07T00:55:35.323Z,14.10
2023-05-07T00:58:40.264Z,14.10
2023-05-07T01:01:43.287Z,14.20
2023-05-07T01:04:46.460Z,14.10
2023-05-07T01:07:50.873Z,14.10
2023-05-07T01:10:54.700Z,14.10
2023-05-07T01:14:00.916Z,14.10
2023-05-07T01:17:03.968Z,14.10
2023-05-07T01:20:09.066Z,14.10
2023-05-07T01:23:13.727Z,14.20
2023-05-07T01:26:17.270Z,14.10
2023-05-07T01:29:20.187Z,14.10
2023-05-07T01:32:29.538Z,14.00
2023-05-07T01:35:37.952Z,14.10
2023-05-07T01:38:43.958Z,14.10
2023-05-07T01:41:48.486Z,14.20
2023-05-07T01:44:51.371Z,14.10
2023-05-07T01:47:55.163Z,14.10
2023-05-07T01:50:58.165Z,14.10
2023-05-07T01:54:02.359Z,14.20
2023-05-07T01:57:05.464Z,14.10
2023-05-07T02:00:10.084Z,14.10
2023-05-07T02:03:13.776Z,14.10
2023-05-07T02:06:18.079Z,14.00
2023-05-07T02:09:23.102Z,14.00
2023-05-07T02:12:26.070Z,13.90
2023-05-07T02:15:28.915Z,13.90
2023-05-07T02:18:33.010Z,13.90
2023-05-07T02:21:35.928Z,13.90
2023-05-07T02:24:40.114Z,13.80
2023-05-07T02:27:42.919Z,13.80
2023-05-07T02:30:46.084Z,13.80
2023-05-07T02:33:48.939Z,13.80
2023-05-07T02:36:51.841Z,13.80
2023-05-07T02:39:56.266Z,13.80
2023-05-07T02:42:59.106Z,13.80
2023-05-07T02:46:06.506Z,13.70
2023-05-07T02:49:09.430Z,13.70
2023-05-07T02:52:12.310Z,13.70
2023-05-07T02:55:16.779Z,13.70
2023-05-07T02:58:19.635Z,13.70
2023-05-07T03:01:22.811Z,13.60
2023-05-07T03:04:25.775Z,13.60
2023-05-07T03:07:28.612Z,13.60
2023-05-07T03:10:32.832Z,13.60
2023-05-07T03:13:35.801Z,13.60
2023-05-07T03:16:40.120Z,13.60
2023-05-07T03:19:42.934Z,13.50
2023-05-07T03:22:45.825Z,13.50
2023-05-07T03:25:50.505Z,13.50
2023-05-07T03:28:53.345Z,13.50
2023-05-07T03:31:56.322Z,13.50
2023-05-07T03:34:59.230Z,13.40
2023-05-07T03:38:02.058Z,13.40
2023-05-07T03:41:06.330Z,13.50
2023-05-07T03:44:09.361Z,13.50
2023-05-07T03:47:12.232Z,13.50
2023-05-07T03:50:15.197Z,13.40
2023-05-07T03:53:18.031Z,13.40
2023-05-07T03:56:22.868Z,13.40
2023-05-07T03:59:25.785Z,13.40
2023-05-07T04:02:28.778Z,13.30
2023-05-07T04:05:32.365Z,13.30
2023-05-07T04:08:35.228Z,13.30
2023-05-07T04:11:41.126Z,13.20
2023-05-07T04:14:44.073Z,13.30
2023-05-07T04:17:46.994Z,13.30
2023-05-07T04:20:50.306Z,13.30
2023-05-07T04:23:53.257Z,13.20
2023-05-07T04:26:57.448Z,13.20
2023-05-07T04:30:01.658Z,13.20
2023-05-07T04:33:04.711Z,13.20
2023-05-07T04:36:07.938Z,13.20
2023-05-07T04:39:11.709Z,13.30
2023-05-07T04:42:18.726Z,13.30
2023-05-07T04:45:21.994Z,13.40
2023-05-07T04:48:24.854Z,13.40
2023-05-07T04:51:29.014Z,13.40
2023-05-07T04:54:31.875Z,13.40
2023-05-07T04:57:36.129Z,13.50
2023-05-07T05:00:39.791Z,13.50
2023-05-07T05:03:42.724Z,13.60
2023-05-07T05:06:45.798Z,13.60
2023-05-07T05:09:48.877Z,13.60
2023-05-07T05:12:53.153Z,13.70
2023-05-07T05:15:56.059Z,13.80
2023-05-07T05:18:58.917Z,13.80
2023-05-07T05:22:02.274Z,13.90
2023-05-07T05:28:09.948Z,14.00
2023-05-07T05:31:12.936Z,14.00
2023-05-07T05:34:16.682Z,14.10
2023-05-07T05:37:19.592Z,14.20
2023-05-07T05:40:22.486Z,14.20
2023-05-07T05:43:26.760Z,14.30
2023-05-07T05:46:29.718Z,14.40
2023-05-07T05:49:32.639Z,14.40
2023-05-07T05:52:35.509Z,14.50
2023-05-07T05:55:38.442Z,14.60
2023-05-07T05:58:42.905Z,14.70
2023-05-07T06:04:49.324Z,14.90
2023-05-07T07:45:57.679Z,18.80
2023-05-07T07:49:01.058Z,19.00
2023-05-07T07:52:04.037Z,19.20
2023-05-07T07:55:08.200Z,19.30
2023-05-07T07:58:11.111Z,19.60
2023-05-07T08:01:15.426Z,19.60
2023-05-07T08:04:18.339Z,19.60
2023-05-07T08:07:23.680Z,19.60
2023-05-07T08:10:26.539Z,19.60
2023-05-07T08:13:29.523Z,19.70
2023-05-07T08:16:33.895Z,19.70
2023-05-07T08:19:36.812Z,19.70
2023-05-07T08:22:39.972Z,19.70
2023-05-07T08:25:43.529Z,19.90
2023-05-07T08:28:46.505Z,20.00
2023-05-07T08:31:50.726Z,20.30
2023-05-07T08:34:53.661Z,20.40
2023-05-07T08:37:56.632Z,20.50
2023-05-07T08:40:59.520Z,20.60
2023-05-07T08:44:05.222Z,20.70
2023-05-07T08:47:09.709Z,20.80
2023-05-07T08:50:13.620Z,20.90
2023-05-07T08:53:18.391Z,21.00
2023-05-07T08:56:22.646Z,21.20
2023-05-07T08:59:25.713Z,21.30
2023-05-07T09:02:30.018Z,21.30
2023-05-07T09:05:32.920Z,21.40
2023-05-07T09:08:37.096Z,21.40
2023-05-07T09:11:40.006Z,21.40
2023-05-07T09:14:42.908Z,21.50
2023-05-07T09:17:47.632Z,21.60
2023-05-07T09:20:50.583Z,21.70
2023-05-07T09:27:00.130Z,21.90
2023-05-07T09:30:07.162Z,21.90
2023-05-07T09:33:11.509Z,21.90
2023-05-07T09:36:14.519Z,22.00
2023-05-07T09:39:17.460Z,22.10
2023-05-07T09:42:25.490Z,22.20
2023-05-07T09:48:36.768Z,22.40
2023-05-07T09:51:44.657Z,22.40
2023-05-07T09:57:55.070Z,22.60
2023-05-07T10:00:59.571Z,22.60
2023-05-07T10:04:05.260Z,22.60
2023-05-07T10:07:09.197Z,22.60
2023-05-07T10:10:13.139Z,22.60
2023-05-07T10:19:27.101Z,22.60
2023-05-07T10:22:31.415Z,22.60
2023-05-07T10:25:35.176Z,22.50
2023-05-07T10:28:41.674Z,22.50
2023-05-07T10:31:56.234Z,22.50
2023-05-07T10:35:04.509Z,22.50
2023-05-07T10:38:08.072Z,22.50
2023-05-07T10:41:11.417Z,22.40
2023-05-07T10:44:26.664Z,22.30
2023-05-07T10:47:29.660Z,22.20
2023-05-07T10:50:34.002Z,22.40
2023-05-07T10:53:36.927Z,22.60
2023-05-07T10:56:40.934Z,22.80
2023-05-07T10:59:43.837Z,23.00
2023-05-07T11:03:09.391Z,23.10
2023-05-07T11:06:15.994Z,23.20
2023-05-07T11:09:18.894Z,23.00
2023-05-07T11:12:52.853Z,22.90
2023-05-07T11:15:56.077Z,22.80
2023-05-07T11:18:58.937Z,22.70
2023-05-07T11:22:03.516Z,22.90
2023-05-07T11:25:07.324Z,23.20
2023-05-07T11:28:12.178Z,23.40
2023-05-07T11:31:15.914Z,23.70
2023-05-07T11:34:23.712Z,23.90
2023-05-07T11:37:30.716Z,24.10
2023-05-07T11:40:33.708Z,24.10
2023-05-07T11:43:37.110Z,23.90
2023-05-07T11:46:45.155Z,24.10
2023-05-07T11:49:49.469Z,24.20
2023-05-07T11:52:54.193Z,24.20
2023-05-07T11:55:57.815Z,24.40
2023-05-07T11:59:00.673Z,24.60
2023-05-07T12:02:04.086Z,24.70
2023-05-07T12:05:07.467Z,24.60
2023-05-07T12:08:16.219Z,24.50
2023-05-07T12:11:26.069Z,24.50
2023-05-07T12:14:30.665Z,24.50
2023-05-07T12:17:33.856Z,24.40
2023-05-07T12:20:37.633Z,24.50
2023-05-07T12:23:42.286Z,24.70
2023-05-07T12:26:46.031Z,24.90
2023-05-07T12:29:50.338Z,25.00
2023-05-07T12:32:55.383Z,25.10
2023-05-07T12:35:58.396Z,25.00
2023-05-07T12:39:03.418Z,25.10
2023-05-07T12:42:06.984Z,25.10
2023-05-07T12:45:11.457Z,25.10
2023-05-07T12:48:14.763Z,25.00
2023-05-07T12:51:18.088Z,24.90
2023-05-07T12:54:32.110Z,25.10
2023-05-07T12:57:40.716Z,25.20
2023-05-07T13:00:44.436Z,25.30
2023-05-07T13:03:51.599Z,25.20
2023-05-07T13:06:54.816Z,25.10
2023-05-07T13:09:59.304Z,25.20
2023-05-07T13:13:02.581Z,25.10
2023-05-07T13:16:07.291Z,25.10
2023-05-07T13:19:10.266Z,25.00
2023-05-07T13:22:13.203Z,24.90
2023-05-07T13:25:17.734Z,24.90
2023-05-07T13:28:21.359Z,24.90
2023-05-07T13:31:24.553Z,24.90
2023-05-07T13:34:28.055Z,25.00
2023-05-07T13:37:31.390Z,25.10
2023-05-07T13:40:36.055Z,25.00
2023-05-07T13:43:39.343Z,24.90
2023-05-07T13:46:42.720Z,24.90
2023-05-07T13:49:45.594Z,24.90
2023-05-07T13:52:51.529Z,24.90
2023-05-07T13:55:55.835Z,24.90
2023-05-07T13:59:00.487Z,24.80
2023-05-07T14:02:04.062Z,24.70
2023-05-07T14:05:07.837Z,24.60
2023-05-07T14:08:11.813Z,24.50
2023-05-07T14:11:16.158Z,24.50
2023-05-07T14:14:19.174Z,24.50
2023-05-07T14:17:24.140Z,24.40
2023-05-07T14:20:27.830Z,24.30
2023-05-07T14:23:30.776Z,24.30
2023-05-07T14:26:35.067Z,24.20
2023-05-07T14:29:37.962Z,24.00
2023-05-07T14:32:41.068Z,23.90
2023-05-07T14:35:48.411Z,23.80
2023-05-07T14:38:51.423Z,23.70
2023-05-07T14:41:57.067Z,23.70
2023-05-07T14:45:00.349Z,23.70
2023-05-07T14:48:03.562Z,23.50
2023-05-07T14:51:07.535Z,23.50
2023-05-07T14:54:10.759Z,23.40
2023-05-07T14:57:17.229Z,23.40
2023-05-07T15:00:20.757Z,23.30
2023-05-07T15:03:24.210Z,23.20
2023-05-07T15:06:27.840Z,23.10
2023-05-07T15:09:31.667Z,23.10
2023-05-07T15:12:36.115Z,22.90
2023-05-07T15:15:40.267Z,22.90
2023-05-07T15:18:43.147Z,22.90
2023-05-07T15:21:46.244Z,22.80
2023-05-07T15:24:49.154Z,22.80
2023-05-07T15:27:53.410Z,22.70
2023-05-07T15:30:56.828Z,22.70
2023-05-07T15:33:59.819Z,22.50
2023-05-07T15:37:02.762Z,22.50
2023-05-07T15:40:07.683Z,22.30
2023-05-07T15:43:14.154Z,22.30
2023-05-07T15:46:21.329Z,22.30
2023-05-07T15:49:24.319Z,22.30
2023-05-07T15:52:28.349Z,22.20
2023-05-07T15:55:32.069Z,22.20
2023-05-07T15:58:36.871Z,22.10
2023-05-07T16:01:41.136Z,22.10
2023-05-07T16:04:44.076Z,22.10
2023-05-07T16:07:47.543Z,22.10
2023-05-07T16:10:50.411Z,22.00
2023-05-07T16:13:54.612Z,22.00
2023-05-07T16:16:57.931Z,21.90
2023-05-07T16:20:02.078Z,22.00
2023-05-07T16:23:05.016Z,22.00
2023-05-07T16:26:07.894Z,21.90
2023-05-07T16:29:12.086Z,21.80
2023-05-07T16:32:14.968Z,21.80
2023-05-07T16:35:17.913Z,21.80
2023-05-07T16:38:20.843Z,21.70
2023-05-07T16:41:24.258Z,21.70
2023-05-07T16:44:28.546Z,21.70
2023-05-07T16:47:31.708Z,21.70
2023-05-07T16:50:34.600Z,21.60
2023-05-07T16:53:37.460Z,21.50
2023-05-07T16:56:42.176Z,21.50
2023-05-07T16:59:46.393Z,21.50
2023-05-07T17:02:49.335Z,21.50
2023-05-07T17:05:53.401Z,21.40
2023-05-07T17:08:56.284Z,21.40
2023-05-07T17:11:59.181Z,21.30
2023-05-07T17:15:03.496Z,21.30
2023-05-07T17:18:06.838Z,21.30
2023-05-07T17:21:09.756Z,21.30
2023-05-07T17:24:12.951Z,21.30
2023-05-07T17:27:16.004Z,21.20
2023-05-07T17:30:20.275Z,21.20
2023-05-07T17:33:23.159Z,21.20
2023-05-07T17:36:26.408Z,21.10
2023-05-07T17:39:29.322Z,21.10
2023-05-07T17:42:32.918Z,21.00
2023-05-07T17:45:37.322Z,20.90
2023-05-07T17:48:40.364Z,20.90
2023-05-07T17:51:53.974Z,20.80
2023-05-07T17:54:57.657Z,20.70
2023-05-07T17:58:00.720Z,20.70
2023-05-07T18:01:05.288Z,20.60
2023-05-07T18:04:08.257Z,20.60
2023-05-07T18:07:11.343Z,20.50
2023-05-07T18:10:14.536Z,20.40
2023-05-07T18:13:17.684Z,20.30
2023-05-07T18:16:22.199Z,20.30
2023-05-07T18:19:25.825Z,20.20
2023-05-07T18:22:28.871Z,20.10
2023-05-07T18:25:31.772Z,20.00
2023-05-07T18:28:34.608Z,19.90
2023-05-07T18:31:38.862Z,19.80
2023-05-07T18:34:41.749Z,19.70
2023-05-07T18:37:44.624Z,19.70
2023-05-07T18:40:47.718Z,19.70
2023-05-07T18:43:50.707Z,19.60
2023-05-07T18:46:54.934Z,19.50
2023-05-07T18:49:57.808Z,19.50
2023-05-07T18:53:00.732Z,19.40
2023-05-07T18:56:03.678Z,19.30
2023-05-07T18:59:06.555Z,19.30
2023-05-07T19:02:11.345Z,19.30
2023-05-07T19:05:14.222Z,19.30
2023-05-07T19:08:17.185Z,19.30
2023-05-07T19:11:20.073Z,19.30
2023-05-07T19:14:23.051Z,19.20
2023-05-07T19:17:27.598Z,19.20
2023-05-07T19:20:31.114Z,19.20
2023-05-07T19:23:34.383Z,19.20
2023-05-07T19:26:37.348Z,19.20
2023-05-07T19:29:41.268Z,19.20
2023-05-07T19:32:45.581Z,19.10
2023-05-07T19:35:48.559Z,19.10
2023-05-07T19:38:53.259Z,19.10
2023-05-07T19:41:58.191Z,19.00
2023-05-07T19:45:01.281Z,19.00
2023-05-07T19:48:05.863Z,19.00
2023-05-07T19:51:08.864Z,19.00
2023-05-07T19:54:11.952Z,19.00
2023-05-07T19:57:16.852Z,19.00
2023-05-07T20:00:21.281Z,18.90
2023-05-07T20:03:25.860Z,18.90
2023-05-07T20:06:28.864Z,18.90
2023-05-07T20:09:31.819Z,18.90
2023-05-07T20:12:34.745Z,18.80
2023-05-07T20:15:38.052Z,18.80
2023-05-07T20:18:42.389Z,18.70
2023-05-07T20:21:45.306Z,18.70
2023-05-07T20:24:48.235Z,18.70
2023-05-07T20:27:51.216Z,18.70
2023-05-07T20:30:54.074Z,18.70
2023-05-07T20:33:58.482Z,18.70
2023-05-07T20:37:01.765Z,18.60
2023-05-07T20:40:05.596Z,18.60
2023-05-07T20:43:08.530Z,18.60
2023-05-07T20:46:11.502Z,18.50
2023-05-07T20:49:16.460Z,18.50
2023-05-07T20:52:20.783Z,18.50
2023-05-07T20:55:23.766Z,18.40
2023-05-07T20:58:28.602Z,18.40
2023-05-07T21:01:31.610Z,18.30
2023-05-07T21:04:36.377Z,18.30
2023-05-07T21:07:39.300Z,18.30
2023-05-07T21:10:42.220Z,18.20
2023-05-07T21:13:45.049Z,18.20
2023-05-07T21:16:48.099Z,18.20
2023-05-07T21:19:52.726Z,18.10
2023-05-07T21:22:55.627Z,18.10
2023-05-07T21:25:58.515Z,18.10
2023-05-07T21:29:01.454Z,18.10
2023-05-07T21:32:05.415Z,18.10
2023-05-07T21:35:10.596Z,18.10
2023-05-07T21:38:13.683Z,18.00
2023-05-07T21:41:16.947Z,18.00
2023-05-07T21:44:19.894Z,17.90
2023-05-07T21:47:22.811Z,17.90
2023-05-07T21:50:27.186Z,17.80
2023-05-07T21:53:30.247Z,17.80
2023-05-07T21:56:33.094Z,17.80
2023-05-07T21:59:37.309Z,17.80
2023-05-07T22:02:40.487Z,17.80
2023-05-07T22:05:44.974Z,17.70
2023-05-07T22:08:48.085Z,17.60
2023-05-07T22:11:51.012Z,17.60
2023-05-07T22:14:53.933Z,17.60
2023-05-07T22:17:56.843Z,17.50
2023-05-07T22:21:01.250Z,17.50
2023-05-07T22:24:06.994Z,17.50
2023-05-07T22:27:09.915Z,17.50
2023-05-07T22:30:13.991Z,17.50
2023-05-07T22:33:17.202Z,17.40
2023-05-07T22:36:21.524Z,17.40
2023-05-07T22:39:24.384Z,17.30
2023-05-07T22:42:27.274Z,17.30
2023-05-07T22:45:30.202Z,17.30
2023-05-07T22:48:33.989Z,17.20
2023-05-07T22:51:38.643Z,17.20
2023-05-07T22:54:41.624Z,17.10
2023-05-07T22:57:44.603Z,17.10
2023-05-07T23:00:47.712Z,17.10
2023-05-07T23:03:50.596Z,17.00
2023-05-07T23:06:55.422Z,17.00
2023-05-07T23:09:58.361Z,17.00
2023-05-07T23:13:01.796Z,17.00
2023-05-07T23:16:04.824Z,16.90
2023-05-07T23:19:07.679Z,16.90
2023-05-07T23:22:12.320Z,16.90
2023-05-07T23:25:15.192Z,16.90
2023-05-07T23:28:18.116Z,16.90
2023-05-07T23:31:21.285Z,16.90
2023-05-07T23:34:24.983Z,16.90
2023-05-07T23:37:29.253Z,16.80
2023-05-07T23:40:32.114Z,16.80
2023-05-07T23:43:35.006Z,16.80
2023-05-07T23:46:38.819Z,16.80
2023-05-07T23:49:41.843Z,16.80
2023-05-07T23:52:46.051Z,16.70
2023-05-07T23:55:48.958Z,16.70
2023-05-07T23:58:51.825Z,16.70
